Time;durP1;ratioP1;P1;durP2;ratioP2;P2;SDS_P1;SDS_P2;PMS_P1;PMS_P2;Temp;Humidity;BMP_temperature;BMP_pressure;BME280_temperature;BME280_humidity;BME280_pressure;Samples;Min_cycle;Max_cycle;Signal;HPM_P1;HPM_P2
2021/01/20 00:02:12;;;;;;;6.43;2.80;;;7.80;89.40;;;;;;5075170;28;20472;-73
2021/01/20 00:04:39;;;;;;;3.40;2.27;;;7.80;89.20;;;;;;5075209;28;20445;-73
2021/01/20 00:07:05;;;;;;;7.93;2.50;;;7.80;88.70;;;;;;5075106;28;20441;-73
2021/01/20 00:09:31;;;;;;;3.03;2.37;;;7.80;87.90;;;;;;5074766;28;21011;-73
2021/01/20 00:11:57;;;;;;;7.50;2.50;;;7.70;87.80;;;;;;5074680;28;20506;-73
2021/01/20 00:14:24;;;;;;;4.90;2.70;;;7.70;86.80;;;;;;5075010;28;20444;-73
2021/01/20 00:16:50;;;;;;;4.07;2.73;;;7.70;87.10;;;;;;5073933;28;20499;-73
2021/01/20 00:19:17;;;;;;;5.20;2.50;;;7.70;86.80;;;;;;5074913;28;20440;-73
2021/01/20 00:21:44;;;;;;;5.63;3.57;;;7.60;86.50;;;;;;5074812;28;20447;-72
2021/01/20 00:24:10;;;;;;;5.77;3.97;;;7.60;86.40;;;;;;5074862;28;20445;-73
2021/01/20 00:26:36;;;;;;;5.30;3.20;;;7.60;86.00;;;;;;5074751;28;20436;-73
2021/01/20 00:29:03;;;;;;;7.20;4.00;;;7.70;86.70;;;;;;5074388;28;20443;-73
2021/01/20 00:31:29;;;;;;;6.80;3.57;;;7.60;86.10;;;;;;5074651;28;20466;-73
2021/01/20 00:33:55;;;;;;;6.90;3.73;;;7.60;86.60;;;;;;5074230;28;20982;-73
2021/01/20 00:36:21;;;;;;;9.63;3.97;;;7.70;86.20;;;;;;5074501;28;20480;-73
2021/01/20 00:38:48;;;;;;;5.07;3.83;;;7.70;86.70;;;;;;5074178;28;20452;-73
2021/01/20 00:41:14;;;;;;;4.30;3.20;;;7.60;86.50;;;;;;5074462;28;20441;-73
2021/01/20 00:43:41;;;;;;;9.03;3.13;;;7.70;86.90;;;;;;5074307;28;20468;-73
2021/01/20 00:46:07;;;;;;;5.53;3.70;;;7.70;86.80;;;;;;5074353;28;20437;-73
2021/01/20 00:48:33;;;;;;;5.20;3.50;;;7.70;86.70;;;;;;5074042;28;20953;-73
2021/01/20 00:50:59;;;;;;;10.90;3.23;;;7.70;87.10;;;;;;5074223;28;20448;-73
2021/01/20 00:53:26;;;;;;;6.13;3.00;;;7.70;86.80;;;;;;5074143;28;20464;-73
2021/01/20 00:55:53;;;;;;;8.77;4.23;;;7.70;86.70;;;;;;5074134;28;20480;-73
2021/01/20 00:58:19;;;;;;;12.03;3.70;;;7.70;86.90;;;;;;5074144;28;20833;-73
2021/01/20 01:00:45;;;;;;;5.40;3.63;;;7.70;86.60;;;;;;5074068;28;20451;-73
2021/01/20 01:03:11;;;;;;;6.60;3.60;;;7.70;86.80;;;;;;5073995;28;20467;-73
2021/01/20 01:05:38;;;;;;;6.23;3.30;;;7.70;86.50;;;;;;5073963;28;20441;-73
2021/01/20 01:08:04;;;;;;;4.70;4.03;;;7.80;86.30;;;;;;5073720;28;20959;-73
2021/01/20 01:10:30;;;;;;;7.33;4.20;;;7.70;86.60;;;;;;5073757;28;20467;-73
2021/01/20 01:12:57;;;;;;;6.00;4.30;;;7.80;86.60;;;;;;5073773;28;20468;-73
2021/01/20 01:15:24;;;;;;;10.20;3.97;;;7.80;86.10;;;;;;5073442;28;21055;-73
2021/01/20 01:17:50;;;;;;;6.83;4.00;;;7.80;85.90;;;;;;5073779;28;20450;-73
2021/01/20 01:20:16;;;;;;;5.27;3.77;;;7.80;85.80;;;;;;5073442;28;20946;-73
2021/01/20 01:22:42;;;;;;;6.17;3.03;;;7.80;85.80;;;;;;5073636;28;20468;-73
2021/01/20 01:25:11;;;;;;;4.17;3.20;;;7.80;86.00;;;;;;5073443;28;20452;-73
2021/01/20 01:27:37;;;;;;;4.27;3.73;;;7.80;85.60;;;;;;5073150;28;20980;-73
2021/01/20 01:30:05;;;;;;;9.30;3.97;;;7.80;85.60;;;;;;5073870;28;20451;-73
2021/01/20 01:32:32;;;;;;;4.77;2.87;;;7.80;85.60;;;;;;5073556;28;20505;-73
2021/01/20 01:34:58;;;;;;;5.60;3.53;;;7.80;85.80;;;;;;5073506;28;20608;-73
2021/01/20 01:37:24;;;;;;;4.17;2.90;;;7.80;85.90;;;;;;5073583;28;20429;-73
2021/01/20 01:39:50;;;;;;;4.63;3.07;;;7.80;85.70;;;;;;5073517;28;20445;-73
2021/01/20 01:42:26;;;;;;;4.20;3.03;;;7.90;85.70;;;;;;5073175;28;21050;-73
2021/01/20 01:44:52;;;;;;;6.27;3.00;;;7.80;85.50;;;;;;5073309;28;20460;-73
2021/01/20 01:47:19;;;;;;;3.17;2.40;;;7.80;85.60;;;;;;5073497;28;20448;-73
2021/01/20 01:49:45;;;;;;;5.77;3.10;;;7.80;85.70;;;;;;5073441;28;20455;-73
2021/01/20 01:52:12;;;;;;;3.67;3.07;;;7.80;85.10;;;;;;5073405;28;20521;-73
2021/01/20 01:54:39;;;;;;;3.60;3.07;;;7.80;85.30;;;;;;5073407;28;20498;-73
2021/01/20 01:57:05;;;;;;;3.73;2.90;;;7.80;86.00;;;;;;5073223;28;20485;-73
2021/01/20 01:59:31;;;;;;;4.60;2.90;;;7.80;85.20;;;;;;5073354;28;20449;-73
2021/01/20 02:01:58;;;;;;;4.63;2.70;;;7.80;84.90;;;;;;5072968;28;20475;-73
2021/01/20 02:04:25;;;;;;;3.00;2.70;;;7.80;84.90;;;;;;5073349;28;20452;-73
2021/01/20 02:06:52;;;;;;;3.83;3.40;;;7.80;84.40;;;;;;5073283;28;20463;-73
2021/01/20 02:09:19;;;;;;;5.80;2.73;;;7.80;84.60;;;;;;5073001;28;20957;-73
2021/01/20 02:11:59;;;;;;;3.13;2.33;;;7.80;84.50;;;;;;5072813;28;20480;-73
2021/01/20 02:14:32;;;;;;;3.10;2.40;;;7.80;84.10;;;;;;5073250;28;20428;-73
2021/01/20 02:17:05;;;;;;;2.80;2.20;;;7.80;83.70;;;;;;5072890;28;20551;-73
2021/01/20 02:19:58;;;;;;;2.80;2.43;;;7.80;84.30;;;;;;5072875;28;20934;-73
2021/01/20 02:22:27;;;;;;;5.73;3.10;;;7.90;84.10;;;;;;5073148;28;20522;-73
2021/01/20 02:25:06;;;;;;;4.20;3.17;;;7.90;83.70;;;;;;5073146;28;20475;-73
2021/01/20 02:27:43;;;;;;;3.90;2.60;;;8.00;83.90;;;;;;5073104;28;20459;-73
2021/01/20 02:30:12;;;;;;;5.23;2.80;;;7.90;83.30;;;;;;5073075;28;20436;-73
2021/01/20 02:32:40;;;;;;;4.90;2.83;;;8.00;84.00;;;;;;5072669;28;21043;-73
2021/01/20 02:35:09;;;;;;;5.67;2.60;;;7.90;83.60;;;;;;5072891;28;20449;-73
2021/01/20 02:37:36;;;;;;;4.57;2.50;;;7.90;84.20;;;;;;5072971;28;20452;-73
2021/01/20 02:40:04;;;;;;;4.57;2.40;;;8.00;84.10;;;;;;5074344;28;20483;-73
2021/01/20 02:42:30;;;;;;;4.10;2.23;;;8.00;83.90;;;;;;5076381;28;20970;-73
2021/01/20 02:44:57;;;;;;;4.90;2.37;;;8.00;84.40;;;;;;5076689;28;20443;-73
2021/01/20 02:47:24;;;;;;;12.63;3.17;;;8.00;84.20;;;;;;5076600;28;20449;-73
2021/01/20 02:49:51;;;;;;;5.60;2.90;;;8.10;84.60;;;;;;5076646;28;20441;-73
2021/01/20 02:52:27;;;;;;;3.00;2.10;;;8.10;84.40;;;;;;5076474;28;20476;-73
2021/01/20 02:54:55;;;;;;;3.33;2.87;;;8.10;84.20;;;;;;5076991;28;20428;-73
2021/01/20 02:57:22;;;;;;;4.73;2.70;;;8.10;84.70;;;;;;5076466;28;20453;-73
2021/01/20 02:59:51;;;;;;;7.03;2.70;;;8.10;84.90;;;;;;5076071;28;20440;-73
2021/01/20 03:02:19;;;;;;;7.57;2.90;;;8.20;84.70;;;;;;5076291;28;20468;-73
2021/01/20 03:04:49;;;;;;;4.77;2.30;;;8.20;84.80;;;;;;5076352;28;20442;-73
2021/01/20 03:07:17;;;;;;;3.40;2.73;;;8.20;84.50;;;;;;5076266;28;20440;-73
2021/01/20 03:09:44;;;;;;;5.00;3.00;;;8.30;84.90;;;;;;5075926;28;20953;-73
2021/01/20 03:12:10;;;;;;;3.80;2.90;;;8.30;85.00;;;;;;5075767;28;20529;-73
2021/01/20 03:14:41;;;;;;;8.17;3.60;;;8.40;85.10;;;;;;5075851;28;20934;-73
2021/01/20 03:17:07;;;;;;;8.53;2.90;;;8.40;85.00;;;;;;5076052;28;20510;-73
2021/01/20 03:19:33;;;;;;;5.13;3.20;;;8.40;84.50;;;;;;5075777;28;20961;-73
2021/01/20 03:22:00;;;;;;;2.50;2.30;;;8.50;84.60;;;;;;5075935;28;20455;-73
2021/01/20 03:24:27;;;;;;;3.90;3.00;;;8.50;84.50;;;;;;5075948;28;20441;-73
2021/01/20 03:26:53;;;;;;;2.60;2.40;;;8.60;84.70;;;;;;5075971;28;20464;-73
2021/01/20 03:29:19;;;;;;;3.07;2.77;;;8.60;84.80;;;;;;5075901;28;20445;-73
2021/01/20 03:31:45;;;;;;;4.67;3.00;;;8.60;84.70;;;;;;5075524;28;20818;-73
2021/01/20 03:34:11;;;;;;;2.87;2.60;;;8.70;84.90;;;;;;5076697;28;20444;-73
2021/01/20 03:36:38;;;;;;;3.77;3.03;;;8.70;84.80;;;;;;5075408;28;21021;-73
2021/01/20 03:39:05;;;;;;;4.27;2.63;;;8.70;85.00;;;;;;5075732;28;20440;-73
2021/01/20 03:41:31;;;;;;;3.33;2.47;;;8.80;85.00;;;;;;5075697;28;20440;-73
2021/01/20 03:43:57;;;;;;;4.70;2.80;;;8.80;84.80;;;;;;5075261;28;20469;-73
2021/01/20 03:46:23;;;;;;;2.73;2.53;;;8.90;85.60;;;;;;5075604;28;20490;-73
2021/01/20 03:48:49;;;;;;;4.30;3.10;;;8.90;84.70;;;;;;5075564;28;20478;-73
2021/01/20 03:51:16;;;;;;;3.00;2.50;;;8.90;83.60;;;;;;5075086;28;20809;-73
2021/01/20 03:53:42;;;;;;;2.70;2.50;;;9.00;83.20;;;;;;5075458;28;20460;-73
2021/01/20 03:56:09;;;;;;;3.87;3.10;;;9.10;82.70;;;;;;5075352;28;20476;-73
2021/01/20 03:58:35;;;;;;;4.23;3.27;;;9.10;82.30;;;;;;5075075;28;20432;-73
2021/01/20 04:01:01;;;;;;;6.60;3.40;;;9.10;82.40;;;;;;5075282;28;20445;-73
2021/01/20 04:03:28;;;;;;;5.33;2.80;;;9.20;82.70;;;;;;5075183;28;20472;-73
2021/01/20 04:05:54;;;;;;;8.63;3.17;;;9.20;82.80;;;;;;5075765;28;20464;-73
2021/01/20 04:08:20;;;;;;;5.20;3.10;;;9.10;82.50;;;;;;5075155;28;20440;-73
2021/01/20 04:10:46;;;;;;;6.60;3.20;;;9.20;82.40;;;;;;5074796;28;20472;-73
2021/01/20 04:13:13;;;;;;;8.73;2.90;;;9.20;82.30;;;;;;5075003;28;20464;-73
2021/01/20 04:15:39;;;;;;;6.53;2.80;;;9.20;82.00;;;;;;5074613;28;20476;-73
2021/01/20 04:18:05;;;;;;;5.10;2.90;;;9.20;82.00;;;;;;5074943;28;20444;-74
2021/01/20 04:20:32;;;;;;;4.13;2.90;;;9.20;81.50;;;;;;5074643;28;21019;-74
2021/01/20 04:22:58;;;;;;;8.33;3.80;;;9.20;81.60;;;;;;5075348;28;20476;-74
2021/01/20 04:25:24;;;;;;;7.07;2.60;;;9.20;81.90;;;;;;5074809;28;20445;-73
2021/01/20 04:27:50;;;;;;;4.23;3.07;;;9.20;81.60;;;;;;5074735;28;20445;-73
2021/01/20 04:30:19;;;;;;;5.50;3.60;;;9.10;82.30;;;;;;5074722;28;20444;-73
2021/01/20 04:32:45;;;;;;;4.63;2.97;;;9.10;81.40;;;;;;5074570;28;20471;-73
2021/01/20 04:35:12;;;;;;;6.07;3.10;;;9.10;80.70;;;;;;5074537;28;20448;-73
2021/01/20 04:37:38;;;;;;;3.53;3.10;;;9.10;79.90;;;;;;5074573;28;20447;-73
2021/01/20 04:40:05;;;;;;;4.83;2.97;;;9.10;78.20;;;;;;5074507;28;20441;-73
2021/01/20 04:42:32;;;;;;;3.67;3.00;;;9.20;77.90;;;;;;5074403;28;20468;-73
2021/01/20 04:44:58;;;;;;;3.57;3.23;;;9.20;75.40;;;;;;5074424;28;20445;-73
2021/01/20 04:47:27;;;;;;;6.40;2.80;;;9.20;75.30;;;;;;5074405;28;20506;-73
2021/01/20 04:49:54;;;;;;;4.50;2.70;;;9.10;74.90;;;;;;5074331;28;20445;-73
2021/01/20 04:52:23;;;;;;;6.00;2.83;;;9.20;75.50;;;;;;5074180;28;20465;-73
2021/01/20 04:54:50;;;;;;;3.20;2.50;;;9.20;75.00;;;;;;5074217;28;20471;-73
2021/01/20 04:57:16;;;;;;;5.40;3.23;;;9.20;75.00;;;;;;5073807;28;21017;-72
2021/01/20 04:59:43;;;;;;;5.40;3.10;;;9.20;75.30;;;;;;5073843;28;21011;-72
2021/01/20 05:02:10;;;;;;;3.30;2.60;;;9.20;75.40;;;;;;5073704;28;20463;-72
2021/01/20 05:04:39;;;;;;;3.80;2.70;;;9.20;74.90;;;;;;5073736;28;20444;-73
2021/01/20 05:07:06;;;;;;;3.83;3.23;;;9.20;74.20;;;;;;5074089;28;20429;-74
2021/01/20 05:09:32;;;;;;;3.93;2.27;;;9.20;74.50;;;;;;5074007;28;20807;-74
2021/01/20 05:11:58;;;;;;;3.47;2.80;;;9.20;74.30;;;;;;5073487;28;20452;-74
2021/01/20 05:14:25;;;;;;;3.20;2.60;;;9.20;73.70;;;;;;5073873;28;20448;-73
2021/01/20 05:16:53;;;;;;;2.60;2.40;;;9.20;73.10;;;;;;5073781;28;20505;-73
2021/01/20 05:19:35;;;;;;;4.70;2.10;;;9.10;73.30;;;;;;5073843;28;20444;-73
2021/01/20 05:22:07;;;;;;;3.50;2.27;;;9.20;73.30;;;;;;5073786;28;20460;-73
2021/01/20 05:24:34;;;;;;;2.60;2.37;;;9.10;73.10;;;;;;5073924;28;20425;-73
2021/01/20 05:27:01;;;;;;;2.70;2.40;;;9.10;73.20;;;;;;5073795;28;20421;-73
2021/01/20 05:29:27;;;;;;;5.10;2.03;;;9.10;72.80;;;;;;5073684;28;20444;-73
2021/01/20 05:31:53;;;;;;;2.40;2.20;;;9.20;73.00;;;;;;5073579;28;20448;-73
2021/01/20 05:34:28;;;;;;;2.30;2.10;;;9.20;73.20;;;;;;5073338;28;20899;-74
2021/01/20 05:37:06;;;;;;;2.20;2.00;;;9.20;73.40;;;;;;5073470;28;20472;-73
2021/01/20 05:39:34;;;;;;;3.10;1.97;;;9.30;73.60;;;;;;5073613;28;20444;-72
2021/01/20 05:42:02;;;;;;;5.33;2.03;;;9.20;73.60;;;;;;5073194;28;20938;-72
2021/01/20 05:44:29;;;;;;;4.97;2.40;;;9.30;74.20;;;;;;5073381;28;20494;-73
2021/01/20 05:46:55;;;;;;;8.53;1.87;;;9.30;74.80;;;;;;5073399;28;20440;-72
2021/01/20 05:49:22;;;;;;;3.57;2.50;;;9.30;75.10;;;;;;5073455;28;20445;-72
2021/01/20 05:51:48;;;;;;;3.03;2.37;;;9.30;75.30;;;;;;5073407;28;20452;-72
2021/01/20 05:54:30;;;;;;;2.50;1.83;;;9.30;75.40;;;;;;5073434;28;20451;-72
2021/01/20 05:57:09;;;;;;;4.50;2.20;;;9.30;75.60;;;;;;5073398;28;20464;-72
2021/01/20 05:59:36;;;;;;;3.23;1.87;;;9.40;75.90;;;;;;5073462;28;20486;-72
2021/01/20 06:02:02;;;;;;;2.20;2.00;;;9.40;76.10;;;;;;5074011;28;20448;-72
2021/01/20 06:04:30;;;;;;;4.20;2.20;;;9.40;76.50;;;;;;5073358;28;20433;-72
2021/01/20 06:06:57;;;;;;;6.30;1.70;;;9.50;76.80;;;;;;5072979;28;21000;-72
2021/01/20 06:09:25;;;;;;;2.90;1.60;;;9.50;76.90;;;;;;5073008;28;20425;-72
2021/01/20 06:11:51;;;;;;;2.37;1.50;;;9.50;76.90;;;;;;5072833;28;20460;-72
2021/01/20 06:14:17;;;;;;;2.40;1.57;;;9.50;76.90;;;;;;5073394;28;20440;-72
2021/01/20 06:16:48;;;;;;;3.93;1.83;;;9.40;76.90;;;;;;5076903;28;21024;-72
2021/01/20 06:19:18;;;;;;;7.63;1.67;;;9.50;77.50;;;;;;5077238;28;20471;-72
2021/01/20 06:21:46;;;;;;;5.23;1.50;;;9.40;77.20;;;;;;5076898;28;20452;-73
2021/01/20 06:24:17;;;;;;;6.33;1.67;;;9.50;76.70;;;;;;5076751;28;20994;-72
2021/01/20 06:26:51;;;;;;;4.83;1.37;;;9.50;77.00;;;;;;5077111;28;20432;-72
2021/01/20 06:29:22;;;;;;;4.73;2.03;;;9.50;77.00;;;;;;5077049;28;20429;-72
2021/01/20 06:31:51;;;;;;;2.57;1.50;;;9.50;77.40;;;;;;5076957;28;20432;-72
2021/01/20 06:34:17;;;;;;;2.37;1.50;;;9.50;78.20;;;;;;5076937;28;20452;-74
2021/01/20 06:36:43;;;;;;;3.63;1.60;;;9.50;78.30;;;;;;5076837;28;20476;-72
2021/01/20 06:39:31;;;;;;;4.40;1.40;;;9.40;79.00;;;;;;5076853;28;20452;-72
2021/01/20 06:42:00;;;;;;;2.37;1.60;;;9.30;79.20;;;;;;5076813;28;20428;-72
2021/01/20 06:44:27;;;;;;;5.33;1.57;;;9.30;80.00;;;;;;5076680;28;20436;-72
2021/01/20 06:47:01;;;;;;;1.53;1.43;;;9.30;79.90;;;;;;5077207;28;20458;-72
2021/01/20 06:49:28;;;;;;;2.87;1.60;;;9.30;80.20;;;;;;5076555;28;20452;-73
2021/01/20 06:52:10;;;;;;;2.83;1.30;;;9.30;80.90;;;;;;5076484;28;20436;-74
2021/01/20 06:54:38;;;;;;;1.77;1.33;;;9.20;81.10;;;;;;5076568;28;20480;-73
2021/01/20 06:57:33;;;;;;;5.20;1.73;;;9.20;81.10;;;;;;5076473;28;20479;-74
2021/01/20 07:00:12;;;;;;;2.13;1.93;;;9.20;81.70;;;;;;5076601;28;20765;-75
2021/01/20 07:02:59;;;;;;;1.70;1.50;;;9.20;81.80;;;;;;5076402;28;20464;-72
2021/01/20 07:05:36;;;;;;;1.87;1.53;;;9.20;81.10;;;;;;5076384;28;20424;-74
2021/01/20 07:08:07;;;;;;;2.10;1.47;;;9.20;81.60;;;;;;5076136;28;20417;-72
2021/01/20 07:11:06;;;;;;;3.07;1.80;;;9.20;82.00;;;;;;5076106;28;20529;-74
2021/01/20 07:13:38;;;;;;;1.80;1.70;;;9.20;82.00;;;;;;5076243;28;20464;-74
2021/01/20 07:16:07;;;;;;;1.93;1.50;;;9.20;81.50;;;;;;5075894;28;20500;-74
2021/01/20 07:18:33;;;;;;;2.07;1.60;;;9.10;81.10;;;;;;5076238;28;20540;-74
2021/01/20 07:21:00;;;;;;;2.70;1.87;;;9.20;80.90;;;;;;5076258;28;20429;-74
2021/01/20 07:23:26;;;;;;;8.47;1.50;;;9.10;79.90;;;;;;5077164;28;20468;-74
2021/01/20 07:25:54;;;;;;;2.40;1.90;;;9.10;80.10;;;;;;5076720;28;20441;-74
2021/01/20 07:28:22;;;;;;;2.93;1.60;;;9.10;79.90;;;;;;5076203;28;20424;-74
2021/01/20 07:30:49;;;;;;;1.73;1.10;;;9.10;79.50;;;;;;5076087;28;20440;-74
2021/01/20 07:33:20;;;;;;;1.70;1.10;;;9.10;79.00;;;;;;5075839;28;20475;-74
2021/01/20 07:35:46;;;;;;;2.07;1.53;;;9.10;79.30;;;;;;5075872;28;20809;-74
2021/01/20 07:38:13;;;;;;;1.83;1.47;;;9.20;79.00;;;;;;5075853;28;20789;-74
2021/01/20 07:40:41;;;;;;;2.03;1.47;;;9.10;78.80;;;;;;5075813;28;20448;-73
2021/01/20 07:43:07;;;;;;;2.00;1.30;;;9.20;79.00;;;;;;5075726;28;20461;-73
2021/01/20 07:45:36;;;;;;;2.60;1.40;;;9.20;78.40;;;;;;5075398;28;20506;-73
2021/01/20 07:48:05;;;;;;;4.70;1.50;;;9.20;78.20;;;;;;5075740;28;20429;-73
2021/01/20 07:50:39;;;;;;;3.20;1.23;;;9.20;78.40;;;;;;5075567;28;20472;-73
2021/01/20 07:53:06;;;;;;;1.60;1.43;;;9.30;78.40;;;;;;5075183;28;20990;-73
2021/01/20 07:55:32;;;;;;;2.17;1.30;;;9.20;77.70;;;;;;5075336;28;20502;-73
2021/01/20 07:58:00;;;;;;;2.40;1.60;;;9.30;78.30;;;;;;5075710;28;20424;-73
2021/01/20 08:00:26;;;;;;;1.60;1.50;;;9.30;77.90;;;;;;5075498;28;20440;-74
2021/01/20 08:02:53;;;;;;;1.33;1.20;;;9.40;77.80;;;;;;5075353;28;20475;-74
2021/01/20 08:05:20;;;;;;;1.50;1.30;;;9.40;76.80;;;;;;5075363;28;20433;-73
2021/01/20 08:07:47;;;;;;;3.03;1.50;;;9.50;76.90;;;;;;5075230;28;20445;-73
2021/01/20 08:10:21;;;;;;;1.67;1.53;;;9.50;76.40;;;;;;5075093;28;20447;-73
2021/01/20 08:12:50;;;;;;;2.50;1.40;;;9.50;76.40;;;;;;5075076;28;20505;-73
2021/01/20 08:15:17;;;;;;;1.80;1.57;;;9.60;76.10;;;;;;5074936;28;20830;-73
2021/01/20 08:17:44;;;;;;;4.33;1.50;;;9.60;76.00;;;;;;5075036;28;20471;-73
2021/01/20 08:20:11;;;;;;;3.47;1.60;;;9.60;76.00;;;;;;5075237;28;20938;-73
2021/01/20 08:22:39;;;;;;;2.10;1.30;;;9.60;75.60;;;;;;5074903;28;20518;-73
2021/01/20 08:25:09;;;;;;;3.07;1.40;;;9.70;75.40;;;;;;5074896;28;20452;-73
2021/01/20 08:27:37;;;;;;;1.80;1.37;;;9.70;75.30;;;;;;5074890;28;20425;-73
2021/01/20 08:30:06;;;;;;;2.13;1.30;;;9.80;75.30;;;;;;5074849;28;20527;-73
2021/01/20 08:32:32;;;;;;;1.73;1.53;;;9.80;74.90;;;;;;5074732;28;20472;-73
2021/01/20 08:34:59;;;;;;;3.67;1.67;;;9.80;75.20;;;;;;5074706;28;20452;-73
2021/01/20 08:37:34;;;;;;;2.87;1.60;;;9.80;75.10;;;;;;5073743;28;20846;-73
2021/01/20 08:40:04;;;;;;;2.27;1.27;;;9.80;74.90;;;;;;5074360;28;20421;-73
2021/01/20 08:42:39;;;;;;;4.80;1.97;;;9.80;74.00;;;;;;5074491;28;20464;-73
2021/01/20 08:45:11;;;;;;;3.47;2.03;;;9.80;74.00;;;;;;5074306;28;20919;-73
2021/01/20 08:47:44;;;;;;;2.50;1.40;;;9.80;73.90;;;;;;5074400;28;20428;-73
2021/01/20 08:50:11;;;;;;;3.03;1.60;;;9.90;74.00;;;;;;5074070;28;20425;-73
2021/01/20 08:52:46;;;;;;;3.20;1.60;;;9.90;73.30;;;;;;5074191;28;20473;-73
2021/01/20 08:55:25;;;;;;;5.00;2.53;;;9.90;73.10;;;;;;5074012;28;20842;-73
2021/01/20 08:58:22;;;;;;;4.10;2.40;;;10.00;72.10;;;;;;5073893;28;20461;-73
2021/01/20 09:00:50;;;;;;;3.00;1.93;;;10.10;72.20;;;;;;5074178;28;20483;-73
2021/01/20 09:03:18;;;;;;;3.30;2.53;;;10.10;72.00;;;;;;5074724;28;20503;-73
2021/01/20 09:05:45;;;;;;;3.87;1.70;;;10.10;71.70;;;;;;5073754;28;20958;-73
2021/01/20 09:08:11;;;;;;;2.80;2.00;;;10.10;70.40;;;;;;5074155;28;20441;-73
2021/01/20 09:10:39;;;;;;;3.10;2.70;;;10.20;70.50;;;;;;5073817;28;20464;-74
2021/01/20 09:13:05;;;;;;;2.30;1.90;;;10.20;69.70;;;;;;5073681;28;20465;-73
2021/01/20 09:15:31;;;;;;;2.10;1.90;;;10.20;69.50;;;;;;5073835;28;20433;-73
2021/01/20 09:17:58;;;;;;;2.13;1.87;;;10.30;69.70;;;;;;5073881;28;20455;-73
2021/01/20 09:20:24;;;;;;;2.20;1.60;;;10.30;69.40;;;;;;5073625;28;20910;-73
2021/01/20 09:22:50;;;;;;;4.27;2.37;;;10.40;69.80;;;;;;5073691;28;20460;-73
2021/01/20 09:25:17;;;;;;;5.97;2.00;;;10.40;70.00;;;;;;5073845;28;20428;-73
2021/01/20 09:27:44;;;;;;;2.63;1.80;;;10.40;69.10;;;;;;5073855;28;20455;-73
2021/01/20 09:30:11;;;;;;;4.43;2.13;;;10.40;69.60;;;;;;5073506;28;20942;-73
2021/01/20 09:32:38;;;;;;;1.60;1.43;;;10.50;69.60;;;;;;5073648;28;20460;-73
2021/01/20 09:35:06;;;;;;;2.20;1.77;;;10.40;68.40;;;;;;5073757;28;20444;-73
2021/01/20 09:37:32;;;;;;;1.93;1.63;;;10.30;67.60;;;;;;5073534;28;20484;-73
2021/01/20 09:39:58;;;;;;;3.33;2.07;;;10.30;68.20;;;;;;5073693;28;20444;-73
2021/01/20 09:42:25;;;;;;;3.73;3.37;;;10.30;68.30;;;;;;5073522;28;20465;-73
2021/01/20 09:44:52;;;;;;;3.13;2.20;;;10.10;67.30;;;;;;5073314;28;20984;-73
2021/01/20 09:47:18;;;;;;;3.43;1.97;;;10.10;67.10;;;;;;5073276;28;20440;-73
2021/01/20 09:49:45;;;;;;;2.97;2.00;;;10.00;66.80;;;;;;5073090;28;20891;-73
2021/01/20 09:52:14;;;;;;;2.93;1.87;;;10.10;67.00;;;;;;5073426;28;20763;-73
2021/01/20 09:54:41;;;;;;;3.43;2.20;;;10.00;67.10;;;;;;5073470;28;20517;-73
2021/01/20 09:57:07;;;;;;;4.70;2.00;;;10.00;67.20;;;;;;5073370;28;20576;-73
2021/01/20 09:59:34;;;;;;;2.47;2.10;;;10.00;67.40;;;;;;5073111;28;20818;-73
2021/01/20 10:02:01;;;;;;;2.17;1.90;;;10.10;66.90;;;;;;5073275;28;20494;-73
2021/01/20 10:04:27;;;;;;;2.87;2.00;;;10.00;66.20;;;;;;5073389;28;20456;-73
2021/01/20 10:06:53;;;;;;;2.60;1.83;;;10.00;65.80;;;;;;5073347;28;20445;-73
2021/01/20 10:09:19;;;;;;;3.43;2.13;;;10.00;65.90;;;;;;5073024;28;20429;-73
2021/01/20 10:11:49;;;;;;;2.13;1.93;;;10.00;66.00;;;;;;5072890;28;20452;-73
2021/01/20 10:14:16;;;;;;;4.00;2.40;;;10.00;65.50;;;;;;5073219;28;20472;-73
2021/01/20 10:16:46;;;;;;;2.17;1.97;;;10.10;65.60;;;;;;5073165;28;20473;-73
2021/01/20 10:19:13;;;;;;;5.47;2.53;;;10.10;66.20;;;;;;5072881;28;20450;-73
2021/01/20 10:21:40;;;;;;;4.60;2.27;;;10.10;65.70;;;;;;5072856;28;20939;-73
2021/01/20 10:24:07;;;;;;;2.23;1.97;;;10.10;65.70;;;;;;5073126;28;20499;-74
2021/01/20 10:26:33;;;;;;;3.10;1.97;;;10.20;65.30;;;;;;5073141;28;20441;-73
2021/01/20 10:28:59;;;;;;;3.90;2.67;;;10.20;65.30;;;;;;5073033;28;20445;-73
2021/01/20 10:31:29;;;;;;;4.07;2.40;;;10.20;64.90;;;;;;5072736;28;20790;-73
2021/01/20 10:33:55;;;;;;;4.03;2.57;;;10.20;65.40;;;;;;5072953;28;20469;-73
2021/01/20 10:36:22;;;;;;;2.70;2.00;;;10.20;64.50;;;;;;5072661;28;20998;-73
2021/01/20 10:38:48;;;;;;;4.70;2.17;;;10.20;65.00;;;;;;5073021;28;20444;-73
2021/01/20 10:41:14;;;;;;;2.53;2.10;;;10.30;65.60;;;;;;5073087;28;20433;-73
2021/01/20 10:43:42;;;;;;;4.20;2.20;;;10.30;64.90;;;;;;5072856;28;20465;-73
2021/01/20 10:46:08;;;;;;;4.20;3.00;;;10.30;64.20;;;;;;5072670;28;20930;-73
2021/01/20 10:48:34;;;;;;;2.90;1.97;;;10.30;64.30;;;;;;5072892;28;20449;-73
2021/01/20 10:51:00;;;;;;;3.60;2.50;;;10.40;64.60;;;;;;5072615;28;20429;-73
2021/01/20 10:53:27;;;;;;;3.50;2.93;;;10.50;63.90;;;;;;5072780;28;20475;-73
2021/01/20 10:55:54;;;;;;;3.70;2.13;;;10.60;63.70;;;;;;5072742;28;20445;-73
2021/01/20 10:58:20;;;;;;;4.90;3.10;;;10.60;63.30;;;;;;5072811;28;20452;-73
2021/01/20 11:00:47;;;;;;;4.93;1.90;;;10.60;62.80;;;;;;5073681;28;20483;-73
2021/01/20 11:03:13;;;;;;;2.60;2.17;;;10.70;63.30;;;;;;5076140;28;20464;-73
2021/01/20 11:05:39;;;;;;;5.80;2.90;;;10.80;63.80;;;;;;5076623;28;20512;-74
2021/01/20 11:08:07;;;;;;;3.43;2.50;;;10.80;63.20;;;;;;5076421;28;20428;-73
2021/01/20 11:10:36;;;;;;;5.47;2.57;;;10.90;63.10;;;;;;5076223;28;20509;-74
2021/01/20 11:13:07;;;;;;;3.10;2.23;;;10.90;63.10;;;;;;5076198;28;20464;-74
2021/01/20 11:15:35;;;;;;;5.43;2.57;;;11.00;63.40;;;;;;5076307;28;20464;-74
2021/01/20 11:18:01;;;;;;;8.57;3.70;;;11.00;63.10;;;;;;5075837;28;20904;-74
2021/01/20 11:20:27;;;;;;;4.77;3.37;;;11.10;63.60;;;;;;5076081;28;20483;-74
2021/01/20 11:22:53;;;;;;;6.03;2.83;;;11.10;62.10;;;;;;5075644;28;21035;-74
2021/01/20 11:25:20;;;;;;;6.47;2.43;;;11.10;61.20;;;;;;5075953;28;20429;-73
2021/01/20 11:27:47;;;;;;;5.33;2.60;;;11.10;59.80;;;;;;5076022;28;20431;-73
2021/01/20 11:30:14;;;;;;;4.13;2.70;;;11.10;59.60;;;;;;5075888;28;20444;-73
2021/01/20 11:32:40;;;;;;;3.70;3.03;;;11.10;59.40;;;;;;5075891;28;20475;-73
2021/01/20 11:35:07;;;;;;;4.10;2.80;;;11.10;59.70;;;;;;5075828;28;20449;-73
2021/01/20 11:37:33;;;;;;;3.77;2.53;;;11.10;59.60;;;;;;5075424;28;20484;-73
2021/01/20 11:40:03;;;;;;;7.20;2.67;;;11.10;59.30;;;;;;5075784;28;20494;-73
2021/01/20 11:42:29;;;;;;;3.77;2.60;;;11.10;59.70;;;;;;5075656;28;20851;-73
2021/01/20 11:44:57;;;;;;;2.67;2.47;;;11.10;59.50;;;;;;5075391;28;20425;-73
2021/01/20 11:47:23;;;;;;;4.33;3.00;;;11.10;59.30;;;;;;5075677;28;20425;-73
2021/01/20 11:49:50;;;;;;;4.30;2.67;;;11.10;59.20;;;;;;5075583;28;20482;-73
2021/01/20 11:52:17;;;;;;;2.80;2.50;;;11.20;59.30;;;;;;5075532;28;20476;-73
2021/01/20 11:54:43;;;;;;;5.20;3.03;;;11.20;58.60;;;;;;5075516;28;20449;-73
2021/01/20 11:57:09;;;;;;;7.93;2.80;;;11.20;58.80;;;;;;5075384;28;20480;-73
2021/01/20 11:59:35;;;;;;;3.70;2.70;;;11.30;59.00;;;;;;5075441;28;20425;-73
2021/01/20 12:02:03;;;;;;;2.70;2.17;;;11.30;58.40;;;;;;5075289;28;20497;-73
2021/01/20 12:04:29;;;;;;;8.00;2.57;;;11.40;58.10;;;;;;5075301;28;20444;-73
2021/01/20 12:06:55;;;;;;;4.30;2.70;;;11.40;58.20;;;;;;5075279;28;20513;-73
2021/01/20 12:09:21;;;;;;;2.60;2.40;;;11.50;57.90;;;;;;5075194;28;20429;-73
2021/01/20 12:11:48;;;;;;;3.43;2.30;;;11.50;57.60;;;;;;5074074;28;20510;-73
2021/01/20 12:14:14;;;;;;;4.33;2.43;;;11.50;57.80;;;;;;5074529;28;20487;-73
2021/01/20 12:16:41;;;;;;;5.23;2.90;;;11.50;57.60;;;;;;5074931;28;20480;-73
2021/01/20 12:19:08;;;;;;;3.97;2.40;;;11.60;58.50;;;;;;5075036;28;20425;-73
2021/01/20 12:21:34;;;;;;;3.60;2.60;;;11.60;58.40;;;;;;5074961;28;20445;-73
2021/01/20 12:24:01;;;;;;;5.47;2.30;;;11.60;57.80;;;;;;5074889;28;20475;-73
2021/01/20 12:26:27;;;;;;;3.57;2.33;;;11.60;58.20;;;;;;5074783;28;20448;-73
2021/01/20 12:28:53;;;;;;;5.43;2.80;;;11.60;58.10;;;;;;5074767;28;20451;-73
2021/01/20 12:31:19;;;;;;;4.13;2.20;;;11.60;58.00;;;;;;5074680;28;20444;-73
2021/01/20 12:33:45;;;;;;;4.03;2.60;;;11.60;57.80;;;;;;5074696;28;20468;-73
2021/01/20 12:36:13;;;;;;;3.23;2.17;;;11.70;57.80;;;;;;5074532;28;20481;-73
2021/01/20 12:38:39;;;;;;;4.00;2.40;;;11.70;57.80;;;;;;5074601;28;20433;-72
2021/01/20 12:41:05;;;;;;;4.13;2.40;;;11.80;57.70;;;;;;5074529;28;20440;-73
2021/01/20 12:43:31;;;;;;;7.90;2.47;;;11.80;57.60;;;;;;5074441;28;20460;-73
2021/01/20 12:45:57;;;;;;;3.90;2.30;;;11.80;57.30;;;;;;5074137;28;20899;-73
2021/01/20 12:48:24;;;;;;;3.77;2.37;;;11.80;57.50;;;;;;5074373;28;20449;-73
2021/01/20 12:50:50;;;;;;;4.13;2.80;;;11.70;57.50;;;;;;5074403;28;20444;-73
2021/01/20 12:53:17;;;;;;;4.10;2.40;;;11.70;57.70;;;;;;5073980;28;20841;-73
2021/01/20 12:55:43;;;;;;;3.13;2.67;;;11.60;57.40;;;;;;5074033;28;20425;-73
2021/01/20 12:58:09;;;;;;;2.70;2.07;;;11.50;57.10;;;;;;5074240;28;20475;-73